sensor_id;sensor_type;location;lat;lon;timestamp;pressure;altitude;pressure_sealevel;temperature;humidity
62708;BME280;48769;51.624;5.886;2023-06-14T00:02:08;101215.53;;;20.25;46.00
62708;BME280;48769;51.624;5.886;2023-06-14T00:04:34;101214.38;;;20.18;45.68
62708;BME280;48769;51.624;5.886;2023-06-14T00:07:00;101218.81;;;20.08;45.62
62708;BME280;48769;51.624;5.886;2023-06-14T00:09:25;101216.53;;;20.03;46.08
62708;BME280;48769;51.624;5.886;2023-06-14T00:11:51;101220.31;;;20.01;46.02
62708;BME280;48769;51.624;5.886;2023-06-14T00:14:16;101215.69;;;20.03;45.54
62708;BME280;48769;51.624;5.886;2023-06-14T00:16:41;101221.56;;;19.97;46.16
62708;BME280;48769;51.624;5.886;2023-06-14T00:19:08;101218.66;;;19.89;45.82
62708;BME280;48769;51.624;5.886;2023-06-14T00:21:35;101219.91;;;19.84;45.59
62708;BME280;48769;51.624;5.886;2023-06-14T00:24:01;101222.84;;;19.81;45.58
62708;BME280;48769;51.624;5.886;2023-06-14T00:26:26;101221.16;;;19.80;45.64
62708;BME280;48769;51.624;5.886;2023-06-14T00:28:53;101215.72;;;19.71;45.57
62708;BME280;48769;51.624;5.886;2023-06-14T00:31:18;101222.44;;;19.65;45.50
62708;BME280;48769;51.624;5.886;2023-06-14T00:33:44;101221.72;;;19.63;45.67
62708;BME280;48769;51.624;5.886;2023-06-14T00:36:09;101227.06;;;19.63;45.56
62708;BME280;48769;51.624;5.886;2023-06-14T00:38:34;101231.47;;;19.64;45.10
62708;BME280;48769;51.624;5.886;2023-06-14T00:41:00;101228.03;;;19.62;45.37
62708;BME280;48769;51.624;5.886;2023-06-14T00:43:25;101229.53;;;19.66;45.17
62708;BME280;48769;51.624;5.886;2023-06-14T00:45:50;101228.78;;;19.64;45.07
62708;BME280;48769;51.624;5.886;2023-06-14T00:48:16;101232.44;;;19.63;45.54
62708;BME280;48769;51.624;5.886;2023-06-14T00:50:42;101234.38;;;19.61;44.97
62708;BME280;48769;51.624;5.886;2023-06-14T00:53:14;101237.16;;;19.59;46.00
62708;BME280;48769;51.624;5.886;2023-06-14T00:55:40;101233.66;;;19.59;45.62
62708;BME280;48769;51.624;5.886;2023-06-14T00:58:06;101231.22;;;19.56;44.90
62708;BME280;48769;51.624;5.886;2023-06-14T01:00:31;101235.03;;;19.53;45.23
62708;BME280;48769;51.624;5.886;2023-06-14T01:02:57;101238.06;;;19.49;45.34
62708;BME280;48769;51.624;5.886;2023-06-14T01:05:23;101233.47;;;19.39;44.81
62708;BME280;48769;51.624;5.886;2023-06-14T01:15:44;101239.47;;;19.32;44.69
62708;BME280;48769;51.624;5.886;2023-06-14T01:18:11;101244.34;;;19.27;45.26
62708;BME280;48769;51.624;5.886;2023-06-14T01:20:42;101246.56;;;19.22;45.30
62708;BME280;48769;51.624;5.886;2023-06-14T01:23:10;101243.28;;;19.18;45.30
62708;BME280;48769;51.624;5.886;2023-06-14T01:25:37;101242.56;;;19.16;45.22
62708;BME280;48769;51.624;5.886;2023-06-14T01:28:05;101247.16;;;19.14;45.27
62708;BME280;48769;51.624;5.886;2023-06-14T01:30:37;101237.69;;;19.10;45.31
62708;BME280;48769;51.624;5.886;2023-06-14T01:33:04;101241.34;;;19.09;45.03
62708;BME280;48769;51.624;5.886;2023-06-14T01:35:30;101245.25;;;19.05;45.68
62708;BME280;48769;51.624;5.886;2023-06-14T01:37:56;101244.53;;;19.03;45.32
62708;BME280;48769;51.624;5.886;2023-06-14T01:40:22;101250.25;;;18.98;45.64
62708;BME280;48769;51.624;5.886;2023-06-14T01:42:50;101249.38;;;18.98;45.78
62708;BME280;48769;51.624;5.886;2023-06-14T01:45:16;101250.38;;;18.97;45.74
62708;BME280;48769;51.624;5.886;2023-06-14T01:47:43;101253.28;;;18.94;45.48
62708;BME280;48769;51.624;5.886;2023-06-14T01:50:09;101242.13;;;18.88;46.05
62708;BME280;48769;51.624;5.886;2023-06-14T01:52:36;101244.78;;;18.88;45.99
62708;BME280;48769;51.624;5.886;2023-06-14T01:55:01;101252.09;;;18.86;45.92
62708;BME280;48769;51.624;5.886;2023-06-14T01:57:27;101245.16;;;18.84;45.93
62708;BME280;48769;51.624;5.886;2023-06-14T01:59:52;101248.91;;;18.81;45.95
62708;BME280;48769;51.624;5.886;2023-06-14T02:02:17;101247.69;;;18.74;46.36
62708;BME280;48769;51.624;5.886;2023-06-14T02:04:43;101250.59;;;18.71;46.61
62708;BME280;48769;51.624;5.886;2023-06-14T02:07:08;101247.06;;;18.71;46.55
62708;BME280;48769;51.624;5.886;2023-06-14T02:09:34;101247.19;;;18.69;46.75
62708;BME280;48769;51.624;5.886;2023-06-14T02:12:02;101249.28;;;18.65;46.90
62708;BME280;48769;51.624;5.886;2023-06-14T02:14:27;101242.69;;;18.58;46.64
62708;BME280;48769;51.624;5.886;2023-06-14T02:16:53;101251.44;;;18.60;46.69
62708;BME280;48769;51.624;5.886;2023-06-14T02:19:19;101241.84;;;18.58;47.79
62708;BME280;48769;51.624;5.886;2023-06-14T02:21:45;101237.56;;;18.55;47.52
62708;BME280;48769;51.624;5.886;2023-06-14T02:24:11;101247.06;;;18.48;47.14
62708;BME280;48769;51.624;5.886;2023-06-14T02:26:36;101252.53;;;18.47;47.21
62708;BME280;48769;51.624;5.886;2023-06-14T02:29:03;101245.69;;;18.42;47.42
62708;BME280;48769;51.624;5.886;2023-06-14T02:31:30;101247.53;;;18.42;48.65
62708;BME280;48769;51.624;5.886;2023-06-14T02:33:55;101255.69;;;18.40;47.67
62708;BME280;48769;51.624;5.886;2023-06-14T02:36:21;101259.06;;;18.42;47.81
62708;BME280;48769;51.624;5.886;2023-06-14T02:38:47;101252.50;;;18.35;47.58
62708;BME280;48769;51.624;5.886;2023-06-14T02:41:12;101252.50;;;18.35;47.55
62708;BME280;48769;51.624;5.886;2023-06-14T02:43:38;101257.16;;;18.33;47.85
62708;BME280;48769;51.624;5.886;2023-06-14T02:46:03;101258.09;;;18.32;48.06
62708;BME280;48769;51.624;5.886;2023-06-14T02:48:29;101256.41;;;18.31;48.61
62708;BME280;48769;51.624;5.886;2023-06-14T02:50:55;101257.63;;;18.27;49.79
62708;BME280;48769;51.624;5.886;2023-06-14T02:53:21;101254.19;;;18.25;48.85
62708;BME280;48769;51.624;5.886;2023-06-14T02:55:46;101261.47;;;18.23;49.35
62708;BME280;48769;51.624;5.886;2023-06-14T02:58:13;101259.06;;;18.20;48.96
62708;BME280;48769;51.624;5.886;2023-06-14T03:00:39;101260.25;;;18.16;49.73
62708;BME280;48769;51.624;5.886;2023-06-14T03:03:06;101261.69;;;18.09;50.10
62708;BME280;48769;51.624;5.886;2023-06-14T03:05:37;101270.47;;;18.11;50.25
62708;BME280;48769;51.624;5.886;2023-06-14T03:08:06;101271.31;;;18.11;49.97
62708;BME280;48769;51.624;5.886;2023-06-14T03:10:32;101284.78;;;18.10;49.76
62708;BME280;48769;51.624;5.886;2023-06-14T03:12:57;101281.38;;;18.08;51.22
62708;BME280;48769;51.624;5.886;2023-06-14T03:15:22;101271.38;;;17.98;50.88
62708;BME280;48769;51.624;5.886;2023-06-14T03:17:49;101282.09;;;17.98;51.96
62708;BME280;48769;51.624;5.886;2023-06-14T03:20:15;101282.09;;;17.98;51.59
62708;BME280;48769;51.624;5.886;2023-06-14T03:22:41;101287.66;;;17.95;52.43
62708;BME280;48769;51.624;5.886;2023-06-14T03:25:07;101289.81;;;17.90;52.66
62708;BME280;48769;51.624;5.886;2023-06-14T03:27:33;101285.56;;;17.88;51.88
62708;BME280;48769;51.624;5.886;2023-06-14T03:29:58;101287.38;;;17.87;51.88
62708;BME280;48769;51.624;5.886;2023-06-14T03:32:23;101291.25;;;17.83;52.66
62708;BME280;48769;51.624;5.886;2023-06-14T03:34:49;101294.16;;;17.80;52.64
62708;BME280;48769;51.624;5.886;2023-06-14T03:37:16;101294.91;;;17.82;52.44
62708;BME280;48769;51.624;5.886;2023-06-14T03:39:41;101304.84;;;17.80;52.49
62708;BME280;48769;51.624;5.886;2023-06-14T03:42:12;101305.59;;;17.82;51.57
62708;BME280;48769;51.624;5.886;2023-06-14T03:44:37;101297.44;;;17.84;51.69
62708;BME280;48769;51.624;5.886;2023-06-14T03:47:03;101307.41;;;17.82;51.45
62708;BME280;48769;51.624;5.886;2023-06-14T03:49:29;101299.25;;;17.83;51.41
62708;BME280;48769;51.624;5.886;2023-06-14T03:51:55;101305.81;;;17.79;51.22
62708;BME280;48769;51.624;5.886;2023-06-14T03:54:20;101306.88;;;17.77;51.65
62708;BME280;48769;51.624;5.886;2023-06-14T03:56:47;101301.03;;;17.71;51.97
62708;BME280;48769;51.624;5.886;2023-06-14T03:59:12;101312.78;;;17.69;51.65
62708;BME280;48769;51.624;5.886;2023-06-14T04:01:37;101304.25;;;17.64;51.99
62708;BME280;48769;51.624;5.886;2023-06-14T04:04:03;101310.34;;;17.66;51.89
62708;BME280;48769;51.624;5.886;2023-06-14T04:06:28;101307.44;;;17.69;51.66
62708;BME280;48769;51.624;5.886;2023-06-14T04:08:57;101311.09;;;17.68;51.95
62708;BME280;48769;51.624;5.886;2023-06-14T04:11:29;101316.16;;;17.71;52.01
62708;BME280;48769;51.624;5.886;2023-06-14T04:13:54;101322.50;;;17.70;52.14
62708;BME280;48769;51.624;5.886;2023-06-14T04:16:21;101327.13;;;17.68;52.01
62708;BME280;48769;51.624;5.886;2023-06-14T04:18:47;101327.13;;;17.68;52.34
62708;BME280;48769;51.624;5.886;2023-06-14T04:21:13;101327.75;;;17.71;52.12
62708;BME280;48769;51.624;5.886;2023-06-14T04:23:38;101325.06;;;17.71;52.30
62708;BME280;48769;51.624;5.886;2023-06-14T04:26:04;101327.50;;;17.74;52.41
62708;BME280;48769;51.624;5.886;2023-06-14T04:28:29;101334.97;;;17.82;52.21
62708;BME280;48769;51.624;5.886;2023-06-14T04:30:55;101326.00;;;17.83;52.05
62708;BME280;48769;51.624;5.886;2023-06-14T04:33:20;101328.34;;;17.88;52.46
62708;BME280;48769;51.624;5.886;2023-06-14T04:35:45;101341.34;;;17.92;52.51
62708;BME280;48769;51.624;5.886;2023-06-14T04:38:12;101340.50;;;17.92;52.05
62708;BME280;48769;51.624;5.886;2023-06-14T04:40:38;101345.00;;;17.91;52.16
62708;BME280;48769;51.624;5.886;2023-06-14T04:43:11;101343.63;;;17.86;52.43
62708;BME280;48769;51.624;5.886;2023-06-14T04:45:42;101339.88;;;17.88;52.61
62708;BME280;48769;51.624;5.886;2023-06-14T04:48:10;101341.66;;;18.01;52.37
62708;BME280;48769;51.624;5.886;2023-06-14T04:50:35;101354.03;;;18.02;52.26
62708;BME280;48769;51.624;5.886;2023-06-14T04:53:01;101347.03;;;18.12;52.29
62708;BME280;48769;51.624;5.886;2023-06-14T04:55:26;101342.91;;;18.19;51.66
62708;BME280;48769;51.624;5.886;2023-06-14T04:57:52;101340.78;;;18.35;51.65
62708;BME280;48769;51.624;5.886;2023-06-14T05:00:20;101343.56;;;18.80;51.37
62708;BME280;48769;51.624;5.886;2023-06-14T05:02:46;101346.75;;;19.30;49.79
62708;BME280;48769;51.624;5.886;2023-06-14T05:05:12;101339.63;;;19.74;48.72
62708;BME280;48769;51.624;5.886;2023-06-14T05:07:37;101337.06;;;20.05;47.87
62708;BME280;48769;51.624;5.886;2023-06-14T05:10:04;101344.91;;;20.29;47.35
62708;BME280;48769;51.624;5.886;2023-06-14T05:12:30;101345.16;;;20.47;46.79
62708;BME280;48769;51.624;5.886;2023-06-14T05:14:55;101348.63;;;20.80;46.01
62708;BME280;48769;51.624;5.886;2023-06-14T05:17:23;101352.34;;;21.09;44.99
62708;BME280;48769;51.624;5.886;2023-06-14T05:19:48;101346.81;;;21.41;44.37
62708;BME280;48769;51.624;5.886;2023-06-14T05:22:14;101351.94;;;21.64;44.03
62708;BME280;48769;51.624;5.886;2023-06-14T05:24:39;101358.59;;;21.50;44.00
62708;BME280;48769;51.624;5.886;2023-06-14T05:27:05;101359.22;;;21.83;43.46
62708;BME280;48769;51.624;5.886;2023-06-14T05:29:30;101357.66;;;22.09;43.31
62708;BME280;48769;51.624;5.886;2023-06-14T05:31:55;101360.81;;;22.44;42.48
62708;BME280;48769;51.624;5.886;2023-06-14T05:34:21;101354.16;;;22.28;42.20
62708;BME280;48769;51.624;5.886;2023-06-14T05:36:46;101360.91;;;22.61;42.10
62708;BME280;48769;51.624;5.886;2023-06-14T05:39:11;101355.63;;;22.79;41.10
62708;BME280;48769;51.624;5.886;2023-06-14T05:41:37;101353.75;;;22.99;41.28
62708;BME280;48769;51.624;5.886;2023-06-14T05:44:02;101361.50;;;23.40;40.40
62708;BME280;48769;51.624;5.886;2023-06-14T05:46:27;101359.00;;;23.56;40.06
62708;BME280;48769;51.624;5.886;2023-06-14T05:48:54;101364.94;;;23.69;39.15
62708;BME280;48769;51.624;5.886;2023-06-14T05:51:20;101363.50;;;23.65;39.91
62708;BME280;48769;51.624;5.886;2023-06-14T05:53:46;101366.56;;;23.80;39.30
62708;BME280;48769;51.624;5.886;2023-06-14T05:56:12;101364.66;;;23.90;39.16
62708;BME280;48769;51.624;5.886;2023-06-14T05:58:38;101369.03;;;23.91;38.36
62708;BME280;48769;51.624;5.886;2023-06-14T06:01:03;101366.03;;;23.94;37.97
62708;BME280;48769;51.624;5.886;2023-06-14T06:03:28;101374.91;;;23.87;38.41
62708;BME280;48769;51.624;5.886;2023-06-14T06:05:57;101384.41;;;24.09;38.92
62708;BME280;48769;51.624;5.886;2023-06-14T06:08:23;101375.38;;;24.54;38.00
62708;BME280;48769;51.624;5.886;2023-06-14T06:10:48;101367.28;;;24.80;37.32
62708;BME280;48769;51.624;5.886;2023-06-14T06:13:13;101369.72;;;24.99;36.85
62708;BME280;48769;51.624;5.886;2023-06-14T06:15:39;101373.63;;;25.23;36.56
62708;BME280;48769;51.624;5.886;2023-06-14T06:18:04;101380.41;;;25.27;36.62
62708;BME280;48769;51.624;5.886;2023-06-14T06:20:30;101380.91;;;24.70;36.96
62708;BME280;48769;51.624;5.886;2023-06-14T06:22:59;101391.78;;;24.07;38.98
62708;BME280;48769;51.624;5.886;2023-06-14T06:25:25;101388.38;;;23.59;39.98
62708;BME280;48769;51.624;5.886;2023-06-14T06:27:52;101395.06;;;23.27;40.68
62708;BME280;48769;51.624;5.886;2023-06-14T06:30:24;101402.53;;;23.06;40.91
62708;BME280;48769;51.624;5.886;2023-06-14T06:32:50;101398.25;;;23.03;41.48
62708;BME280;48769;51.624;5.886;2023-06-14T06:35:16;101403.66;;;23.03;41.49
62708;BME280;48769;51.624;5.886;2023-06-14T06:37:41;101408.22;;;22.93;42.17
62708;BME280;48769;51.624;5.886;2023-06-14T06:40:07;101409.50;;;22.79;41.84
62708;BME280;48769;51.624;5.886;2023-06-14T06:42:34;101409.91;;;22.75;41.94
62708;BME280;48769;51.624;5.886;2023-06-14T06:44:59;101409.09;;;22.64;41.85
62708;BME280;48769;51.624;5.886;2023-06-14T06:47:25;101413.63;;;22.74;41.28
62708;BME280;48769;51.624;5.886;2023-06-14T06:49:50;101422.97;;;22.79;42.91
62708;BME280;48769;51.624;5.886;2023-06-14T06:52:15;101419.84;;;22.84;42.86
62708;BME280;48769;51.624;5.886;2023-06-14T06:54:41;101430.91;;;23.00;42.36
62708;BME280;48769;51.624;5.886;2023-06-14T06:57:06;101425.34;;;23.12;41.97
62708;BME280;48769;51.624;5.886;2023-06-14T06:59:32;101429.91;;;23.01;42.63
62708;BME280;48769;51.624;5.886;2023-06-14T07:01:58;101437.00;;;23.02;42.35
62708;BME280;48769;51.624;5.886;2023-06-14T07:04:23;101437.72;;;23.04;42.20
62708;BME280;48769;51.624;5.886;2023-06-14T07:06:49;101432.88;;;23.08;41.75
62708;BME280;48769;51.624;5.886;2023-06-14T07:09:14;101441.63;;;23.20;41.26
62708;BME280;48769;51.624;5.886;2023-06-14T07:11:42;101436.44;;;23.36;41.84
62708;BME280;48769;51.624;5.886;2023-06-14T07:14:07;101439.31;;;23.35;42.04
62708;BME280;48769;51.624;5.886;2023-06-14T07:16:33;101439.56;;;23.41;41.43
62708;BME280;48769;51.624;5.886;2023-06-14T07:18:58;101450.59;;;23.48;40.91
62708;BME280;48769;51.624;5.886;2023-06-14T07:21:24;101451.16;;;23.51;41.13
62708;BME280;48769;51.624;5.886;2023-06-14T07:23:51;101438.44;;;23.44;40.28
62708;BME280;48769;51.624;5.886;2023-06-14T07:26:16;101446.81;;;23.41;40.53
62708;BME280;48769;51.624;5.886;2023-06-14T07:28:42;101447.06;;;23.47;40.63
62708;BME280;48769;51.624;5.886;2023-06-14T07:31:10;101450.44;;;23.49;42.02
62708;BME280;48769;51.624;5.886;2023-06-14T07:33:36;101450.16;;;23.52;40.43
62708;BME280;48769;51.624;5.886;2023-06-14T07:36:01;101449.41;;;23.70;40.99
62708;BME280;48769;51.624;5.886;2023-06-14T07:38:27;101452.97;;;23.88;40.04
62708;BME280;48769;51.624;5.886;2023-06-14T07:40:52;101452.97;;;23.88;39.96
62708;BME280;48769;51.624;5.886;2023-06-14T07:43:17;101447.28;;;23.91;39.64
62708;BME280;48769;51.624;5.886;2023-06-14T07:45:42;101458.25;;;24.08;38.65
62708;BME280;48769;51.624;5.886;2023-06-14T07:48:09;101454.88;;;24.23;39.60
62708;BME280;48769;51.624;5.886;2023-06-14T07:50:56;101449.28;;;24.35;38.69
62708;BME280;48769;51.624;5.886;2023-06-14T07:53:21;101460.56;;;24.48;39.85
62708;BME280;48769;51.624;5.886;2023-06-14T07:55:47;101452.28;;;24.49;38.73
62708;BME280;48769;51.624;5.886;2023-06-14T07:58:13;101453.06;;;24.60;37.83
62708;BME280;48769;51.624;5.886;2023-06-14T08:00:38;101450.13;;;24.71;37.79
62708;BME280;48769;51.624;5.886;2023-06-14T08:03:03;101463.69;;;24.79;37.88
62708;BME280;48769;51.624;5.886;2023-06-14T08:05:29;101458.03;;;24.90;38.03
62708;BME280;48769;51.624;5.886;2023-06-14T08:07:55;101446.97;;;25.02;35.33
62708;BME280;48769;51.624;5.886;2023-06-14T08:10:21;101453.00;;;24.95;34.90
62708;BME280;48769;51.624;5.886;2023-06-14T08:12:46;101445.09;;;24.76;34.37
62708;BME280;48769;51.624;5.886;2023-06-14T08:15:13;101448.25;;;24.89;35.28
62708;BME280;48769;51.624;5.886;2023-06-14T08:17:38;101443.50;;;24.91;35.68
62708;BME280;48769;51.624;5.886;2023-06-14T08:20:04;101442.16;;;24.69;33.93
62708;BME280;48769;51.624;5.886;2023-06-14T08:22:30;101445.38;;;24.91;34.21
62708;BME280;48769;51.624;5.886;2023-06-14T08:24:59;101448.38;;;25.06;34.22
62708;BME280;48769;51.624;5.886;2023-06-14T08:27:25;101449.34;;;25.05;34.33
62708;BME280;48769;51.624;5.886;2023-06-14T08:29:50;101454.81;;;24.87;34.24
62708;BME280;48769;51.624;5.886;2023-06-14T08:32:15;101460.16;;;25.05;33.92
62708;BME280;48769;51.624;5.886;2023-06-14T08:34:40;101446.00;;;25.11;33.71
62708;BME280;48769;51.624;5.886;2023-06-14T08:37:06;101451.84;;;25.16;32.58
62708;BME280;48769;51.624;5.886;2023-06-14T08:39:31;101443.41;;;25.19;32.64
62708;BME280;48769;51.624;5.886;2023-06-14T08:41:57;101439.03;;;25.26;32.62
62708;BME280;48769;51.624;5.886;2023-06-14T08:44:23;101453.94;;;25.30;32.41
62708;BME280;48769;51.624;5.886;2023-06-14T08:46:48;101446.53;;;25.40;32.09
62708;BME280;48769;51.624;5.886;2023-06-14T08:49:16;101442.22;;;25.56;31.32
62708;BME280;48769;51.624;5.886;2023-06-14T08:51:55;101440.53;;;25.55;32.13
62708;BME280;48769;51.624;5.886;2023-06-14T08:54:22;101436.09;;;25.46;32.02
62708;BME280;48769;51.624;5.886;2023-06-14T08:56:49;101443.41;;;25.19;32.50
62708;BME280;48769;51.624;5.886;2023-06-14T08:59:16;101438.72;;;25.29;33.28
62708;BME280;48769;51.624;5.886;2023-06-14T09:01:44;101436.44;;;25.42;32.81
62708;BME280;48769;51.624;5.886;2023-06-14T09:04:10;101440.50;;;25.47;32.67
62708;BME280;48769;51.624;5.886;2023-06-14T09:06:40;101431.94;;;25.25;32.50
62708;BME280;48769;51.624;5.886;2023-06-14T09:09:29;101432.22;;;25.14;33.21
62708;BME280;48769;51.624;5.886;2023-06-14T09:11:58;101439.41;;;25.31;32.88
62708;BME280;48769;51.624;5.886;2023-06-14T09:14:28;101435.13;;;25.55;32.67
62708;BME280;48769;51.624;5.886;2023-06-14T09:17:07;101443.31;;;25.71;32.06
62708;BME280;48769;51.624;5.886;2023-06-14T09:19:35;101446.38;;;25.76;31.53
62708;BME280;48769;51.624;5.886;2023-06-14T09:22:06;101440.69;;;25.87;32.12
62708;BME280;48769;51.624;5.886;2023-06-14T09:24:31;101441.53;;;25.96;32.02
62708;BME280;48769;51.624;5.886;2023-06-14T09:26:57;101444.44;;;25.95;32.20
62708;BME280;48769;51.624;5.886;2023-06-14T09:29:23;101446.13;;;25.96;32.46
62708;BME280;48769;51.624;5.886;2023-06-14T09:31:49;101440.50;;;25.89;31.30
62708;BME280;48769;51.624;5.886;2023-06-14T09:34:16;101448.09;;;25.77;32.11
62708;BME280;48769;51.624;5.886;2023-06-14T09:36:43;101438.69;;;25.98;31.80
62708;BME280;48769;51.624;5.886;2023-06-14T09:39:08;101447.53;;;26.16;32.34
62708;BME280;48769;51.624;5.886;2023-06-14T09:41:38;101438.84;;;25.96;31.67
62708;BME280;48769;51.624;5.886;2023-06-14T09:44:06;101442.56;;;25.87;32.83
62708;BME280;48769;51.624;5.886;2023-06-14T09:46:32;101440.38;;;25.91;31.41
62708;BME280;48769;51.624;5.886;2023-06-14T09:48:59;101456.28;;;26.02;30.73
62708;BME280;48769;51.624;5.886;2023-06-14T09:51:25;101450.38;;;25.98;31.62
62708;BME280;48769;51.624;5.886;2023-06-14T09:53:52;101442.25;;;25.98;31.46
62708;BME280;48769;51.624;5.886;2023-06-14T09:56:23;101438.69;;;25.98;31.37
62708;BME280;48769;51.624;5.886;2023-06-14T09:58:54;101437.34;;;25.94;30.86
62708;BME280;48769;51.624;5.886;2023-06-14T10:01:20;101438.50;;;25.99;31.33
62708;BME280;48769;51.624;5.886;2023-06-14T10:03:47;101441.41;;;26.06;31.35
62708;BME280;48769;51.624;5.886;2023-06-14T10:06:16;101439.22;;;26.18;30.60
62708;BME280;48769;51.624;5.886;2023-06-14T10:08:42;101440.69;;;25.87;31.23
62708;BME280;48769;51.624;5.886;2023-06-14T10:11:07;101435.63;;;25.93;30.59
62708;BME280;48769;51.624;5.886;2023-06-14T10:13:36;101439.34;;;26.00;31.44
62708;BME280;48769;51.624;5.886;2023-06-14T10:16:10;101450.91;;;26.10;32.72
62708;BME280;48769;51.624;5.886;2023-06-14T10:18:42;101443.06;;;25.91;31.85
62708;BME280;48769;51.624;5.886;2023-06-14T10:21:15;101448.16;;;25.94;32.16
62708;BME280;48769;51.624;5.886;2023-06-14T10:23:43;101436.78;;;25.82;32.51
62708;BME280;48769;51.624;5.886;2023-06-14T10:26:18;101439.03;;;25.95;32.27
62708;BME280;48769;51.624;5.886;2023-06-14T10:28:56;101432.91;;;25.93;31.79
62708;BME280;48769;51.624;5.886;2023-06-14T10:31:23;101436.28;;;25.86;32.60
62708;BME280;48769;51.624;5.886;2023-06-14T10:33:50;101432.25;;;25.99;32.50
62708;BME280;48769;51.624;5.886;2023-06-14T10:36:27;101443.81;;;26.17;31.63
62708;BME280;48769;51.624;5.886;2023-06-14T10:39:18;101442.44;;;26.21;32.92
62708;BME280;48769;51.624;5.886;2023-06-14T10:41:54;101436.34;;;26.19;31.41
62708;BME280;48769;51.624;5.886;2023-06-14T10:46:49;101446.34;;;26.19;31.97
62708;BME280;48769;51.624;5.886;2023-06-14T10:49:36;101438.41;;;26.17;32.48
62708;BME280;48769;51.624;5.886;2023-06-14T10:52:08;101442.28;;;26.06;32.36
62708;BME280;48769;51.624;5.886;2023-06-14T10:54:37;101446.16;;;26.12;32.10
62708;BME280;48769;51.624;5.886;2023-06-14T10:57:06;101434.97;;;25.99;32.61
62708;BME280;48769;51.624;5.886;2023-06-14T10:59:33;101438.72;;;26.14;33.76
62708;BME280;48769;51.624;5.886;2023-06-14T11:04:51;101434.31;;;26.21;32.35
62708;BME280;48769;51.624;5.886;2023-06-14T11:12:31;101441.44;;;26.14;32.76
62708;BME280;48769;51.624;5.886;2023-06-14T11:14:58;101446.19;;;26.28;32.64
62708;BME280;48769;51.624;5.886;2023-06-14T11:17:25;101437.91;;;26.30;33.04
62708;BME280;48769;51.624;5.886;2023-06-14T11:20:07;101443.16;;;26.40;31.40
62708;BME280;48769;51.624;5.886;2023-06-14T11:22:39;101442.47;;;26.29;31.95
62708;BME280;48769;51.624;5.886;2023-06-14T11:25:07;101443.84;;;26.33;30.96
62708;BME280;48769;51.624;5.886;2023-06-14T11:27:33;101447.56;;;26.41;31.38
62708;BME280;48769;51.624;5.886;2023-06-14T11:29:58;101441.78;;;26.35;30.36
62708;BME280;48769;51.624;5.886;2023-06-14T11:32:24;101439.59;;;26.31;31.46
62708;BME280;48769;51.624;5.886;2023-06-14T11:34:49;101437.56;;;26.33;30.31
62708;BME280;48769;51.624;5.886;2023-06-14T11:37:16;101433.00;;;26.42;30.52
62708;BME280;48769;51.624;5.886;2023-06-14T11:39:45;101420.13;;;26.27;30.24
62708;BME280;48769;51.624;5.886;2023-06-14T11:42:15;101426.22;;;26.29;30.63
62708;BME280;48769;51.624;5.886;2023-06-14T11:44:40;101430.25;;;26.25;30.74
62708;BME280;48769;51.624;5.886;2023-06-14T11:47:06;101435.53;;;26.35;31.36
62708;BME280;48769;51.624;5.886;2023-06-14T11:49:35;101432.19;;;26.49;31.07
62708;BME280;48769;51.624;5.886;2023-06-14T11:52:01;101428.59;;;26.32;31.01
62708;BME280;48769;51.624;5.886;2023-06-14T11:54:26;101438.56;;;26.24;31.08
62708;BME280;48769;51.624;5.886;2023-06-14T11:56:52;101432.81;;;26.27;30.17
62708;BME280;48769;51.624;5.886;2023-06-14T11:59:18;101431.31;;;26.32;30.51
62708;BME280;48769;51.624;5.886;2023-06-14T12:01:45;101436.72;;;26.32;30.76
62708;BME280;48769;51.624;5.886;2023-06-14T12:04:10;101430.09;;;26.10;30.77
62708;BME280;48769;51.624;5.886;2023-06-14T12:06:36;101424.31;;;26.05;31.02
62708;BME280;48769;51.624;5.886;2023-06-14T12:09:05;101430.06;;;26.02;29.15
62708;BME280;48769;51.624;5.886;2023-06-14T12:11:43;101429.53;;;25.99;30.25
62708;BME280;48769;51.624;5.886;2023-06-14T12:14:09;101425.34;;;26.13;30.89
62708;BME280;48769;51.624;5.886;2023-06-14T12:16:37;101427.22;;;26.20;31.60
62708;BME280;48769;51.624;5.886;2023-06-14T12:19:16;101427.56;;;26.42;30.79
62708;BME280;48769;51.624;5.886;2023-06-14T12:21:43;101427.91;;;26.47;31.80
62708;BME280;48769;51.624;5.886;2023-06-14T12:24:12;101425.53;;;26.35;30.74
62708;BME280;48769;51.624;5.886;2023-06-14T12:26:38;101421.50;;;26.40;31.10
62708;BME280;48769;51.624;5.886;2023-06-14T12:29:05;101435.06;;;26.56;31.05
62708;BME280;48769;51.624;5.886;2023-06-14T12:31:31;101437.78;;;26.56;30.73
62708;BME280;48769;51.624;5.886;2023-06-14T12:33:56;101435.06;;;26.64;31.00
62708;BME280;48769;51.624;5.886;2023-06-14T12:36:21;101425.59;;;26.52;31.30
62708;BME280;48769;51.624;5.886;2023-06-14T12:38:47;101434.72;;;26.51;31.44
62708;BME280;48769;51.624;5.886;2023-06-14T12:41:13;101435.56;;;26.76;31.70
62708;BME280;48769;51.624;5.886;2023-06-14T12:43:39;101428.94;;;26.87;31.13
62708;BME280;48769;51.624;5.886;2023-06-14T12:46:05;101425.56;;;26.85;30.60
62708;BME280;48769;51.624;5.886;2023-06-14T12:48:31;101427.25;;;26.86;30.93
62708;BME280;48769;51.624;5.886;2023-06-14T12:50:57;101431.66;;;26.87;30.62
62708;BME280;48769;51.624;5.886;2023-06-14T12:53:23;101428.94;;;26.87;30.73
62708;BME280;48769;51.624;5.886;2023-06-14T12:55:49;101434.38;;;26.87;30.42
62708;BME280;48769;51.624;5.886;2023-06-14T12:58:14;101435.53;;;26.84;31.47
62708;BME280;48769;51.624;5.886;2023-06-14T13:00:42;101424.84;;;26.99;30.69
62708;BME280;48769;51.624;5.886;2023-06-14T13:03:07;101427.56;;;27.15;30.62
62708;BME280;48769;51.624;5.886;2023-06-14T13:05:35;101430.78;;;27.27;29.66
62708;BME280;48769;51.624;5.886;2023-06-14T13:08:02;101433.31;;;27.68;29.44